Time;durP1;ratioP1;P1;durP2;ratioP2;P2;SDS_P1;SDS_P2;PMS_P1;PMS_P2;Temp;Humidity;BMP_temperature;BMP_pressure;BME280_temperature;BME280_humidity;BME280_pressure;Samples;Min_cycle;Max_cycle;Signal;HPM_P1;HPM_P2
2021/01/11 00:01:39;;;;;;;23.57;18.10;;;-5.30;99.90;;;;;;6119326;23;20417;-76
2021/01/11 00:04:05;;;;;;;25.00;19.77;;;-5.30;99.90;;;;;;6095100;23;20415;-76
2021/01/11 00:06:36;;;;;;;30.70;22.30;;;-5.40;99.90;;;;;;6096359;23;20397;-76
2021/01/11 00:09:03;;;;;;;25.00;20.57;;;-5.40;99.90;;;;;;6094514;23;20840;-75
2021/01/11 00:11:29;;;;;;;27.90;22.57;;;-5.40;99.90;;;;;;6094885;23;20763;-76
2021/01/11 00:13:56;;;;;;;26.77;20.97;;;-5.40;99.90;;;;;;6096364;23;20445;-76
2021/01/11 00:16:22;;;;;;;29.77;21.50;;;-5.40;99.90;;;;;;6096302;23;20880;-76
2021/01/11 00:18:48;;;;;;;26.50;21.57;;;-5.40;99.90;;;;;;6095729;23;20426;-76
2021/01/11 00:21:16;;;;;;;26.40;20.33;;;-5.40;99.90;;;;;;6119175;23;20416;-76
2021/01/11 00:23:42;;;;;;;31.60;21.50;;;-5.40;99.90;;;;;;6096343;23;20427;-76
2021/01/11 00:26:10;;;;;;;27.60;20.37;;;-5.30;99.90;;;;;;6094726;23;20564;-76
2021/01/11 00:28:36;;;;;;;24.17;19.00;;;-5.30;99.90;;;;;;6096040;23;20423;-76
2021/01/11 00:31:03;;;;;;;28.70;21.40;;;-5.30;99.90;;;;;;6096119;23;20394;-76
2021/01/11 00:33:29;;;;;;;26.60;19.97;;;-5.30;99.90;;;;;;6094458;23;20426;-76
2021/01/11 00:35:56;;;;;;;25.70;19.17;;;-5.30;99.90;;;;;;6094773;23;20422;-76
2021/01/11 00:38:22;;;;;;;27.03;19.70;;;-5.40;99.90;;;;;;6118638;23;20438;-76
2021/01/11 00:40:48;;;;;;;23.07;19.43;;;-5.50;99.90;;;;;;6094456;23;20467;-76
2021/01/11 00:43:14;;;;;;;23.63;19.50;;;-5.60;99.90;;;;;;6095971;23;20396;-76
2021/01/11 00:45:41;;;;;;;25.20;20.80;;;-5.70;99.90;;;;;;6096210;23;20398;-76
2021/01/11 00:48:08;;;;;;;27.80;20.83;;;-5.70;99.90;;;;;;6094154;23;21020;-76
2021/01/11 00:50:35;;;;;;;24.20;19.73;;;-5.80;99.90;;;;;;6094631;23;20416;-76
2021/01/11 00:53:01;;;;;;;31.47;24.53;;;-5.80;99.90;;;;;;6094382;23;20739;-76
2021/01/11 00:55:28;;;;;;;27.23;21.73;;;-5.80;99.90;;;;;;6096001;23;20446;-77
2021/01/11 00:58:06;;;;;;;27.67;21.57;;;-5.80;99.90;;;;;;6094263;23;20949;-75
2021/01/11 01:00:38;;;;;;;26.97;21.93;;;-5.70;99.90;;;;;;6094203;23;20466;-76
2021/01/11 01:03:13;;;;;;;29.17;22.07;;;-5.70;99.90;;;;;;6118683;23;20412;-76
2021/01/11 01:05:40;;;;;;;25.67;21.10;;;-5.70;99.90;;;;;;6095943;23;20447;-76
2021/01/11 01:08:06;;;;;;;32.40;24.50;;;-5.70;99.90;;;;;;6094132;23;20433;-76
2021/01/11 01:10:32;;;;;;;28.50;22.20;;;-5.60;99.90;;;;;;6095186;23;20397;-76
2021/01/11 01:12:59;;;;;;;28.93;22.73;;;-5.60;99.90;;;;;;6095767;23;20877;-76
2021/01/11 01:15:25;;;;;;;26.73;21.40;;;-5.60;99.90;;;;;;6094194;23;20422;-76
2021/01/11 01:17:52;;;;;;;27.33;20.97;;;-5.50;99.90;;;;;;6094200;23;20944;-76
2021/01/11 01:20:19;;;;;;;24.87;20.77;;;-5.60;99.90;;;;;;6094057;23;20446;-76
2021/01/11 01:22:45;;;;;;;31.80;21.17;;;-5.60;99.90;;;;;;6095860;23;20699;-76
2021/01/11 01:25:13;;;;;;;25.17;20.80;;;-5.60;99.90;;;;;;6095709;23;20710;-76
2021/01/11 01:27:39;;;;;;;30.20;22.93;;;-5.70;99.90;;;;;;6095610;23;20413;-76
2021/01/11 01:30:08;;;;;;;30.00;21.83;;;-5.70;99.90;;;;;;6093878;23;20419;-76
2021/01/11 01:32:34;;;;;;;28.77;23.10;;;-5.70;99.90;;;;;;6094123;23;20416;-76
2021/01/11 01:35:01;;;;;;;29.63;23.03;;;-5.60;99.90;;;;;;6095689;23;20426;-76
2021/01/11 01:37:28;;;;;;;32.30;23.50;;;-5.60;99.90;;;;;;6094131;23;20974;-76
2021/01/11 01:39:54;;;;;;;28.00;22.60;;;-5.60;99.90;;;;;;6093625;23;20451;-75
2021/01/11 01:42:20;;;;;;;30.47;23.17;;;-5.70;99.90;;;;;;6093889;23;20908;-76
2021/01/11 01:44:47;;;;;;;27.70;22.27;;;-5.80;99.90;;;;;;6094056;23;20422;-76
2021/01/11 01:47:13;;;;;;;29.10;23.07;;;-5.70;99.90;;;;;;6095430;23;20393;-76
2021/01/11 01:49:40;;;;;;;26.27;22.57;;;-5.80;99.90;;;;;;6093824;23;20414;-76
2021/01/11 01:52:07;;;;;;;28.63;21.23;;;-5.80;99.90;;;;;;6093816;23;20480;-76
2021/01/11 01:54:35;;;;;;;27.90;21.70;;;-5.90;99.90;;;;;;6095426;23;20394;-76
2021/01/11 01:57:02;;;;;;;26.33;21.50;;;-6.00;99.90;;;;;;6093741;23;20422;-76
2021/01/11 01:59:28;;;;;;;22.97;20.37;;;-6.00;99.90;;;;;;6095228;23;20466;-76
2021/01/11 02:01:55;;;;;;;28.33;20.77;;;-6.00;99.90;;;;;;6094095;23;20406;-76
2021/01/11 02:04:21;;;;;;;22.73;19.03;;;-6.10;99.90;;;;;;6095687;23;20418;-76
2021/01/11 02:06:56;;;;;;;27.13;20.87;;;-6.10;99.90;;;;;;6094260;23;20482;-76
2021/01/11 02:09:36;;;;;;;25.40;21.00;;;-6.10;99.90;;;;;;6095027;23;20414;-76
2021/01/11 02:12:09;;;;;;;26.73;20.70;;;-6.20;99.90;;;;;;6118499;23;20461;-76
2021/01/11 02:14:49;;;;;;;25.87;20.53;;;-6.20;99.90;;;;;;6093976;23;20949;-76
2021/01/11 02:17:19;;;;;;;27.97;20.93;;;-6.20;99.90;;;;;;6093970;23;20868;-76
2021/01/11 02:20:28;;;;;;;27.30;20.37;;;-6.10;99.90;;;;;;6093614;23;20493;-75
2021/01/11 02:23:11;;;;;;;32.83;22.13;;;-6.10;99.90;;;;;;6096838;23;20371;-76
2021/01/11 02:25:42;;;;;;;24.17;20.03;;;-6.10;99.90;;;;;;6096071;23;20445;-76
2021/01/11 02:28:24;;;;;;;28.27;22.03;;;-6.10;99.90;;;;;;6095874;23;20508;-76
2021/01/11 02:30:57;;;;;;;25.83;21.00;;;-6.10;99.90;;;;;;6097409;23;20374;-76
2021/01/11 02:33:24;;;;;;;25.50;20.77;;;-6.10;99.90;;;;;;6097410;23;20386;-76
2021/01/11 02:36:02;;;;;;;26.63;22.20;;;-6.10;99.90;;;;;;6095894;23;20422;-76
2021/01/11 02:38:29;;;;;;;29.40;22.60;;;-6.10;99.90;;;;;;6096913;23;20414;-76
2021/01/11 02:40:56;;;;;;;26.60;21.63;;;-6.00;99.90;;;;;;6095693;23;20820;-76
2021/01/11 02:43:22;;;;;;;25.43;20.57;;;-6.00;99.90;;;;;;6097251;23;20390;-76
2021/01/11 02:45:49;;;;;;;27.33;21.50;;;-6.10;99.90;;;;;;6097059;23;20462;-76
2021/01/11 02:48:21;;;;;;;26.27;21.13;;;-6.10;99.90;;;;;;6095441;23;20441;-76
2021/01/11 02:50:55;;;;;;;30.43;22.83;;;-6.10;99.90;;;;;;6095592;23;20413;-76
2021/01/11 02:53:29;;;;;;;25.47;21.00;;;-6.00;99.90;;;;;;6097473;23;20410;-76
2021/01/11 02:55:59;;;;;;;28.57;21.37;;;-6.00;99.90;;;;;;6119885;23;20413;-76
2021/01/11 02:58:40;;;;;;;31.00;22.17;;;-6.00;99.90;;;;;;6096831;23;20721;-76
2021/01/11 03:01:11;;;;;;;25.03;21.30;;;-6.00;99.90;;;;;;6097265;23;20422;-76
2021/01/11 03:03:39;;;;;;;29.73;23.87;;;-6.10;99.90;;;;;;6097162;23;20846;-76
2021/01/11 03:06:06;;;;;;;26.93;22.43;;;-6.00;99.90;;;;;;6095517;23;20425;-76
2021/01/11 03:08:32;;;;;;;31.47;23.43;;;-6.00;99.90;;;;;;6095186;23;20434;-76
2021/01/11 03:10:59;;;;;;;26.63;21.30;;;-6.00;99.90;;;;;;6095775;23;20418;-76
2021/01/11 03:13:25;;;;;;;23.83;20.70;;;-6.10;99.90;;;;;;6096899;23;20390;-76
2021/01/11 03:15:51;;;;;;;27.37;20.67;;;-6.20;99.90;;;;;;6096930;23;20394;-76
2021/01/11 03:18:17;;;;;;;23.07;19.40;;;-6.20;99.90;;;;;;6096593;23;20418;-76
2021/01/11 03:20:44;;;;;;;23.27;20.23;;;-6.30;99.90;;;;;;6097027;23;20505;-76
2021/01/11 03:23:11;;;;;;;21.50;19.07;;;-6.30;99.90;;;;;;6096385;23;20421;-76
2021/01/11 03:25:37;;;;;;;25.73;20.93;;;-6.40;99.90;;;;;;6119858;23;20772;-75
2021/01/11 03:28:04;;;;;;;23.37;20.77;;;-6.50;99.90;;;;;;6096765;23;20410;-76
2021/01/11 03:30:30;;;;;;;28.90;21.40;;;-6.40;99.90;;;;;;6096478;23;20414;-76
2021/01/11 03:32:56;;;;;;;28.37;21.50;;;-6.40;99.90;;;;;;6095129;23;20509;-76
2021/01/11 03:35:23;;;;;;;27.33;21.50;;;-6.40;99.90;;;;;;6096094;23;20426;-75
2021/01/11 03:37:50;;;;;;;23.57;20.83;;;-6.30;99.90;;;;;;6095715;23;20437;-77
2021/01/11 03:40:16;;;;;;;26.90;20.57;;;-6.30;99.90;;;;;;6097067;23;20434;-77
2021/01/11 03:42:42;;;;;;;24.33;20.00;;;-6.40;99.90;;;;;;6096558;23;20449;-75
2021/01/11 03:45:10;;;;;;;26.00;20.23;;;-6.50;99.90;;;;;;6094922;23;20434;-75
2021/01/11 03:47:37;;;;;;;21.77;19.47;;;-6.50;99.90;;;;;;6094829;23;20468;-75
2021/01/11 03:50:04;;;;;;;21.73;19.47;;;-6.50;99.90;;;;;;6118930;23;20441;-75
2021/01/11 03:52:33;;;;;;;23.17;20.17;;;-6.50;99.90;;;;;;6096182;23;20398;-76
2021/01/11 03:55:00;;;;;;;24.40;20.17;;;-6.50;99.90;;;;;;6096559;23;20926;-75
2021/01/11 03:57:29;;;;;;;27.87;21.23;;;-6.60;99.90;;;;;;6097602;23;20394;-77
2021/01/11 03:59:55;;;;;;;25.87;21.13;;;-6.60;99.90;;;;;;6101495;23;20434;-77
2021/01/11 04:02:22;;;;;;;23.60;19.60;;;-6.60;99.90;;;;;;6098719;23;20414;-76
2021/01/11 04:04:48;;;;;;;27.33;22.50;;;-6.60;99.90;;;;;;6100506;23;20410;-75
2021/01/11 04:07:14;;;;;;;27.60;22.20;;;-6.50;99.90;;;;;;6095545;23;20390;-76
2021/01/11 04:09:41;;;;;;;27.37;21.97;;;-6.50;99.90;;;;;;6093657;23;20504;-77
2021/01/11 04:12:09;;;;;;;23.50;20.07;;;-6.50;99.90;;;;;;6095401;23;20486;-76
2021/01/11 04:14:35;;;;;;;26.03;20.23;;;-6.60;99.90;;;;;;6092756;23;20836;-76
2021/01/11 04:17:01;;;;;;;24.43;20.43;;;-6.60;99.90;;;;;;6093004;23;20429;-77
2021/01/11 04:19:28;;;;;;;24.03;20.53;;;-6.70;99.90;;;;;;6092506;23;20473;-76
2021/01/11 04:21:54;;;;;;;21.50;19.30;;;-6.70;99.90;;;;;;6096090;23;20756;-77
2021/01/11 04:24:20;;;;;;;23.93;19.50;;;-6.80;99.90;;;;;;6097788;23;20470;-76
2021/01/11 04:26:46;;;;;;;24.93;20.00;;;-6.80;99.90;;;;;;6096527;23;20418;-76
2021/01/11 04:29:14;;;;;;;23.27;20.73;;;-6.80;99.90;;;;;;6093574;23;20498;-76
2021/01/11 04:31:40;;;;;;;23.47;20.63;;;-6.80;99.90;;;;;;6094762;23;20394;-76
2021/01/11 04:34:06;;;;;;;23.50;20.00;;;-6.70;99.90;;;;;;6093790;23;20419;-76
2021/01/11 04:36:33;;;;;;;22.60;20.20;;;-6.70;99.90;;;;;;6094129;23;20417;-76
2021/01/11 04:39:00;;;;;;;26.60;20.80;;;-6.60;99.90;;;;;;6094225;23;20469;-76
2021/01/11 04:41:34;;;;;;;27.00;20.80;;;-6.50;99.90;;;;;;6095524;23;20493;-76
2021/01/11 04:44:04;;;;;;;22.63;20.20;;;-6.40;99.90;;;;;;6095414;23;20409;-76
2021/01/11 04:46:32;;;;;;;24.73;21.23;;;-6.40;99.90;;;;;;6094326;23;20878;-76
2021/01/11 04:48:59;;;;;;;26.97;22.50;;;-6.30;99.90;;;;;;6092738;23;20438;-76
2021/01/11 04:51:25;;;;;;;25.70;21.07;;;-6.30;99.90;;;;;;6095665;23;20398;-76
2021/01/11 04:53:53;;;;;;;25.20;22.10;;;-6.20;99.90;;;;;;6095349;23;20719;-76
2021/01/11 04:56:20;;;;;;;26.33;22.13;;;-6.30;99.90;;;;;;6095697;23;20454;-76
2021/01/11 04:58:54;;;;;;;30.17;23.13;;;-6.30;99.90;;;;;;6095146;23;20434;-76
2021/01/11 05:01:23;;;;;;;25.90;22.70;;;-6.20;99.90;;;;;;6095704;23;20429;-76
2021/01/11 05:03:51;;;;;;;27.50;21.37;;;-6.20;99.90;;;;;;6094898;23;20418;-76
2021/01/11 05:06:18;;;;;;;27.40;20.63;;;-6.20;99.90;;;;;;6094702;23;20469;-76
2021/01/11 05:08:45;;;;;;;27.17;21.83;;;-6.20;99.90;;;;;;6095819;23;20526;-76
2021/01/11 05:11:11;;;;;;;28.37;21.50;;;-6.10;99.90;;;;;;6095172;23;20386;-76
2021/01/11 05:13:38;;;;;;;23.03;20.37;;;-6.10;99.90;;;;;;6095673;23;20390;-76
2021/01/11 05:16:14;;;;;;;23.17;20.63;;;-6.20;99.90;;;;;;6094119;23;20425;-76
2021/01/11 05:18:41;;;;;;;22.37;20.07;;;-6.20;99.90;;;;;;6093798;23;20587;-76
2021/01/11 05:21:09;;;;;;;27.23;22.53;;;-6.20;99.90;;;;;;6093677;23;20443;-76
2021/01/11 05:23:37;;;;;;;29.87;23.13;;;-6.20;99.90;;;;;;6118354;23;20406;-76
2021/01/11 05:26:14;;;;;;;27.00;21.27;;;-6.20;99.90;;;;;;6095587;23;20395;-76
2021/01/11 05:28:40;;;;;;;26.30;21.43;;;-6.20;99.90;;;;;;6095095;23;20505;-76
2021/01/11 05:31:07;;;;;;;23.73;20.93;;;-6.20;99.90;;;;;;6094070;23;20411;-76
2021/01/11 05:33:33;;;;;;;26.27;21.60;;;-6.20;99.90;;;;;;6095463;23;20391;-76
2021/01/11 05:36:06;;;;;;;24.80;20.60;;;-6.30;99.90;;;;;;6094053;23;20453;-76
2021/01/11 05:38:37;;;;;;;25.63;21.27;;;-6.30;99.90;;;;;;6095751;23;20467;-76
2021/01/11 05:41:14;;;;;;;25.37;21.57;;;-6.30;99.90;;;;;;6095898;23;20994;-76
2021/01/11 05:43:40;;;;;;;25.50;20.43;;;-6.40;99.90;;;;;;6096073;23;20727;-76
2021/01/11 05:46:23;;;;;;;24.97;20.50;;;-6.40;99.90;;;;;;6096462;23;20867;-76
2021/01/11 05:48:57;;;;;;;21.70;18.93;;;-6.40;99.90;;;;;;6095273;23;20536;-76
2021/01/11 05:51:24;;;;;;;24.70;19.07;;;-6.40;99.90;;;;;;6095208;23;20497;-76
2021/01/11 05:53:51;;;;;;;25.53;20.60;;;-6.30;99.90;;;;;;6095372;23;20391;-76
2021/01/11 05:56:18;;;;;;;26.60;19.83;;;-6.40;99.90;;;;;;6095075;23;20395;-76
2021/01/11 05:59:02;;;;;;;23.60;20.70;;;-6.40;99.90;;;;;;6095011;23;20414;-76
2021/01/11 06:01:29;;;;;;;24.60;19.47;;;-6.30;99.90;;;;;;6093765;23;20439;-76
2021/01/11 06:03:56;;;;;;;26.20;20.53;;;-6.30;99.90;;;;;;6095466;23;20459;-76
2021/01/11 06:06:23;;;;;;;22.93;19.97;;;-6.30;99.90;;;;;;6118249;23;20464;-76
2021/01/11 06:08:51;;;;;;;22.07;19.77;;;-6.40;99.90;;;;;;6093364;23;20593;-76
2021/01/11 06:11:21;;;;;;;24.80;21.40;;;-6.40;99.90;;;;;;6094121;23;20425;-76
2021/01/11 06:13:49;;;;;;;22.13;19.77;;;-6.50;99.90;;;;;;6095436;23;20387;-76
2021/01/11 06:16:17;;;;;;;24.70;20.03;;;-6.50;99.90;;;;;;6093884;23;20422;-75
2021/01/11 06:18:44;;;;;;;23.20;20.10;;;-6.50;99.90;;;;;;6093724;23;20489;-75
2021/01/11 06:21:11;;;;;;;27.27;22.33;;;-6.50;99.90;;;;;;6093738;23;20442;-76
2021/01/11 06:23:38;;;;;;;28.43;22.07;;;-6.50;99.90;;;;;;6095478;23;20478;-76
2021/01/11 06:26:29;;;;;;;24.80;20.70;;;-6.50;99.90;;;;;;6094033;23;20571;-76
2021/01/11 06:28:57;;;;;;;25.17;20.83;;;-6.60;99.90;;;;;;6094965;23;20412;-76
2021/01/11 06:31:27;;;;;;;25.47;21.20;;;-6.60;99.90;;;;;;6095305;23;20401;-76
2021/01/11 06:33:54;;;;;;;25.23;21.83;;;-6.60;99.90;;;;;;6095330;23;20383;-76
2021/01/11 06:36:24;;;;;;;25.87;21.13;;;-6.60;99.90;;;;;;6095282;23;20402;-76
2021/01/11 06:38:52;;;;;;;25.03;22.30;;;-6.70;99.90;;;;;;6094825;23;20407;-76
2021/01/11 06:41:20;;;;;;;27.73;21.03;;;-6.70;99.90;;;;;;6093548;23;20442;-76
2021/01/11 06:43:47;;;;;;;23.57;20.87;;;-6.70;99.90;;;;;;6093897;23;20473;-76
2021/01/11 06:46:42;;;;;;;24.50;21.27;;;-6.70;99.90;;;;;;6095184;23;20390;-76
2021/01/11 06:49:22;;;;;;;22.87;20.37;;;-6.70;99.90;;;;;;6093233;23;20442;-76
2021/01/11 06:51:58;;;;;;;27.30;21.87;;;-6.80;99.90;;;;;;6093519;23;20905;-76
2021/01/11 06:54:35;;;;;;;25.87;20.43;;;-6.80;99.90;;;;;;6093603;23;20472;-76
2021/01/11 06:57:16;;;;;;;25.30;20.70;;;-6.80;99.90;;;;;;6093670;23;20410;-76
2021/01/11 06:59:45;;;;;;;23.43;20.60;;;-6.90;99.90;;;;;;6093381;23;20490;-76
2021/01/11 07:02:23;;;;;;;22.63;19.60;;;-6.90;99.90;;;;;;6093560;23;20418;-76
2021/01/11 07:04:50;;;;;;;24.40;21.43;;;-7.00;99.90;;;;;;6095254;23;20762;-76
2021/01/11 07:07:24;;;;;;;28.40;22.13;;;-6.90;99.90;;;;;;6093237;23;20413;-76
2021/01/11 07:09:58;;;;;;;25.70;20.63;;;-6.90;99.90;;;;;;6095079;23;20417;-76
2021/01/11 07:12:26;;;;;;;24.30;20.20;;;-6.90;99.90;;;;;;6096894;23;20379;-76
2021/01/11 07:14:55;;;;;;;24.93;19.87;;;-6.90;99.90;;;;;;6096903;23;20740;-76
2021/01/11 07:17:38;;;;;;;23.10;19.07;;;-6.90;99.90;;;;;;6095257;23;20418;-76
2021/01/11 07:20:07;;;;;;;24.20;19.60;;;-6.90;99.90;;;;;;6119287;23;20441;-76
2021/01/11 07:22:33;;;;;;;25.67;20.13;;;-6.90;99.90;;;;;;6095116;23;20812;-76
2021/01/11 07:25:07;;;;;;;22.83;19.80;;;-6.80;99.90;;;;;;6095231;23;20422;-76
2021/01/11 07:27:34;;;;;;;27.00;20.77;;;-6.80;99.90;;;;;;6096907;23;20410;-76
2021/01/11 07:30:01;;;;;;;24.53;20.87;;;-6.80;99.90;;;;;;6095014;23;20418;-76
2021/01/11 07:32:31;;;;;;;20.77;18.00;;;-6.80;99.90;;;;;;6096522;23;20471;-76
2021/01/11 07:35:01;;;;;;;24.37;19.77;;;-6.80;99.90;;;;;;6095181;23;20501;-76
2021/01/11 07:37:28;;;;;;;25.13;20.13;;;-6.80;99.90;;;;;;6096435;23;20386;-76
2021/01/11 07:39:54;;;;;;;29.23;21.37;;;-6.80;99.90;;;;;;6119125;23;20453;-76
2021/01/11 07:42:22;;;;;;;25.43;19.47;;;-6.70;99.90;;;;;;6096479;23;20426;-76
2021/01/11 07:44:49;;;;;;;27.73;21.43;;;-6.70;99.90;;;;;;6096321;23;20929;-76
2021/01/11 07:47:16;;;;;;;26.40;20.30;;;-6.70;99.90;;;;;;6094778;23;20417;-76
2021/01/11 07:49:44;;;;;;;22.90;19.23;;;-6.60;99.90;;;;;;6096567;23;20402;-76
2021/01/11 07:52:12;;;;;;;23.60;20.40;;;-6.60;99.90;;;;;;6096332;23;20885;-76
2021/01/11 07:54:39;;;;;;;27.97;21.43;;;-6.50;99.90;;;;;;6094962;23;20418;-76
2021/01/11 07:57:10;;;;;;;26.00;19.30;;;-6.40;99.90;;;;;;6096649;23;20414;-76
2021/01/11 07:59:36;;;;;;;27.97;22.00;;;-6.40;99.90;;;;;;6094598;23;20470;-76
2021/01/11 08:02:05;;;;;;;27.53;20.43;;;-6.30;99.90;;;;;;6095044;23;20446;-76
2021/01/11 08:04:36;;;;;;;25.70;20.73;;;-6.20;99.90;;;;;;6094941;23;20414;-76
2021/01/11 08:07:06;;;;;;;25.00;21.33;;;-6.00;99.90;;;;;;6094729;23;20871;-76
2021/01/11 08:09:33;;;;;;;24.03;19.77;;;-5.80;99.90;;;;;;6096302;23;20414;-76
2021/01/11 08:12:08;;;;;;;25.67;20.47;;;-5.60;99.90;;;;;;6096255;23;20718;-76
2021/01/11 08:14:36;;;;;;;28.13;21.50;;;-5.40;99.90;;;;;;6118981;23;20424;-76
2021/01/11 08:17:05;;;;;;;29.37;22.27;;;-5.20;99.90;;;;;;6094849;23;20451;-76
2021/01/11 08:19:32;;;;;;;27.37;22.67;;;-5.10;99.90;;;;;;6095464;23;20449;-76
2021/01/11 08:22:00;;;;;;;25.93;21.80;;;-4.90;99.90;;;;;;6094768;23;20408;-76
2021/01/11 08:24:27;;;;;;;27.83;22.27;;;-4.60;99.90;;;;;;6095994;23;20405;-76
2021/01/11 08:27:02;;;;;;;25.83;20.83;;;-4.20;99.90;;;;;;6094719;23;20905;-76
2021/01/11 08:29:33;;;;;;;26.70;22.67;;;-3.80;99.90;;;;;;6094367;23;20536;-76
2021/01/11 08:32:00;;;;;;;27.07;22.30;;;-3.50;99.90;;;;;;6094647;23;20422;-76
2021/01/11 08:34:27;;;;;;;27.03;22.77;;;-3.20;99.90;;;;;;6094420;23;20902;-76
2021/01/11 08:36:53;;;;;;;25.03;22.27;;;-3.00;99.90;;;;;;6094738;23;20477;-76
2021/01/11 08:39:20;;;;;;;25.90;21.77;;;-2.90;99.90;;;;;;6095493;23;20420;-76
2021/01/11 08:41:50;;;;;;;24.53;21.30;;;-2.70;99.90;;;;;;6094538;23;20447;-76
2021/01/11 08:44:31;;;;;;;25.07;22.43;;;-2.50;99.90;;;;;;6096158;23;20390;-76
2021/01/11 08:47:08;;;;;;;23.87;21.03;;;-2.30;99.90;;;;;;6094480;23;20523;-76
2021/01/11 08:49:54;;;;;;;25.20;22.13;;;-2.20;99.90;;;;;;6095728;23;20410;-76
2021/01/11 08:52:26;;;;;;;25.93;21.77;;;-2.10;99.90;;;;;;6094626;23;20485;-76
2021/01/11 08:54:53;;;;;;;29.17;21.97;;;-2.10;99.90;;;;;;6094828;23;20417;-76
2021/01/11 08:57:20;;;;;;;25.77;22.97;;;-2.00;99.90;;;;;;6094574;23;20422;-76
2021/01/11 08:59:50;;;;;;;28.10;22.63;;;-1.90;99.90;;;;;;6094717;23;20391;-76
2021/01/11 09:02:22;;;;;;;23.97;21.37;;;-1.90;99.90;;;;;;6096114;23;20391;-76
2021/01/11 09:04:49;;;;;;;26.53;22.20;;;-1.80;99.90;;;;;;6096129;23;20426;-76
2021/01/11 09:07:25;;;;;;;25.57;21.40;;;-1.90;99.90;;;;;;6096072;23;20397;-76
2021/01/11 09:09:52;;;;;;;23.70;21.30;;;-1.90;99.90;;;;;;6095814;23;20383;-76
2021/01/11 09:12:33;;;;;;;25.80;21.53;;;-1.90;99.90;;;;;;6094075;23;20418;-76
2021/01/11 09:15:00;;;;;;;24.57;21.93;;;-2.00;99.90;;;;;;6094606;23;20422;-76
2021/01/11 09:17:30;;;;;;;24.97;22.37;;;-2.10;99.90;;;;;;6096220;23;20394;-76
2021/01/11 09:20:01;;;;;;;24.60;21.27;;;-2.10;99.90;;;;;;6118317;23;20441;-76
2021/01/11 09:22:33;;;;;;;26.17;21.70;;;-2.10;99.90;;;;;;6095882;23;20399;-76
2021/01/11 09:25:01;;;;;;;24.50;21.90;;;-2.20;99.90;;;;;;6096126;23;20461;-76
2021/01/11 09:27:27;;;;;;;27.30;22.53;;;-2.30;99.90;;;;;;6094070;23;20428;-77
2021/01/11 09:29:54;;;;;;;26.50;21.27;;;-2.40;99.90;;;;;;6094008;23;20414;-76
2021/01/11 09:32:20;;;;;;;24.83;21.73;;;-2.50;99.90;;;;;;6095353;23;20734;-76
2021/01/11 09:34:46;;;;;;;26.57;22.27;;;-2.50;99.90;;;;;;6095914;23;20394;-76
2021/01/11 09:37:14;;;;;;;24.83;21.63;;;-2.70;99.90;;;;;;6093986;23;20418;-76
2021/01/11 09:39:41;;;;;;;24.87;20.80;;;-2.60;99.90;;;;;;6093550;23;20444;-76
2021/01/11 09:42:07;;;;;;;25.20;20.77;;;-2.60;99.90;;;;;;6095622;23;20403;-76
2021/01/11 09:44:34;;;;;;;25.40;21.10;;;-2.60;99.90;;;;;;6095426;23;20787;-77
2021/01/11 09:47:00;;;;;;;27.90;20.37;;;-2.60;99.90;;;;;;6094035;23;20416;-76
2021/01/11 09:49:27;;;;;;;24.73;22.07;;;-2.70;99.90;;;;;;6095262;23;20415;-76
2021/01/11 09:51:53;;;;;;;27.30;22.40;;;-2.60;99.90;;;;;;6095483;23;20406;-76
2021/01/11 09:54:21;;;;;;;27.87;21.90;;;-2.60;99.90;;;;;;6095592;23;20399;-76
2021/01/11 09:56:47;;;;;;;25.37;22.47;;;-2.60;99.90;;;;;;6094540;23;20414;-76
2021/01/11 09:59:15;;;;;;;24.87;22.13;;;-2.70;99.90;;;;;;6095328;23;20972;-76
2021/01/11 10:01:43;;;;;;;30.63;22.93;;;-2.70;99.90;;;;;;6093832;23;20444;-76
2021/01/11 10:04:11;;;;;;;26.33;22.40;;;-2.70;99.90;;;;;;6095527;23;20398;-76
2021/01/11 10:06:39;;;;;;;25.57;21.83;;;-2.60;99.90;;;;;;6093792;23;20505;-76
2021/01/11 10:09:06;;;;;;;24.30;20.20;;;-2.50;99.90;;;;;;6093486;23;20445;-76
2021/01/11 10:11:33;;;;;;;25.73;21.57;;;-2.50;99.90;;;;;;6095694;23;20397;-76
2021/01/11 10:13:59;;;;;;;26.07;22.27;;;-2.40;99.90;;;;;;6095600;23;20405;-76
2021/01/11 10:16:26;;;;;;;23.30;20.20;;;-2.30;99.90;;;;;;6094092;23;20759;-76
2021/01/11 10:18:52;;;;;;;21.70;19.40;;;-2.30;99.90;;;;;;6093787;23;20442;-76
2021/01/11 10:21:18;;;;;;;29.37;23.20;;;-2.10;99.90;;;;;;6093867;23;20482;-76
2021/01/11 10:23:44;;;;;;;25.60;22.47;;;-2.10;99.90;;;;;;6093947;23;20418;-76
2021/01/11 10:26:15;;;;;;;27.27;22.03;;;-2.10;99.90;;;;;;6093674;23;20420;-76
2021/01/11 10:28:43;;;;;;;29.70;21.07;;;-2.00;99.90;;;;;;6093782;23;20437;-76
2021/01/11 10:31:09;;;;;;;23.37;20.00;;;-2.00;99.90;;;;;;6095290;23;20426;-76
2021/01/11 10:33:36;;;;;;;25.30;21.37;;;-2.00;99.90;;;;;;6095099;23;20394;-76
2021/01/11 10:36:02;;;;;;;25.07;20.33;;;-1.90;99.90;;;;;;6094126;23;20908;-76
2021/01/11 10:38:28;;;;;;;23.73;20.67;;;-1.90;99.90;;;;;;6095272;23;20937;-76
2021/01/11 10:40:55;;;;;;;23.07;20.50;;;-1.80;99.90;;;;;;6093866;23;20447;-76
2021/01/11 10:43:21;;;;;;;23.97;20.20;;;-1.80;99.90;;;;;;6118908;23;20422;-76
2021/01/11 10:45:48;;;;;;;20.93;18.70;;;-1.70;99.90;;;;;;6095875;23;20420;-76
2021/01/11 10:48:14;;;;;;;22.10;18.97;;;-1.70;99.90;;;;;;6095227;23;20928;-76
2021/01/11 10:50:41;;;;;;;22.73;19.90;;;-1.70;99.90;;;;;;6097427;23;20704;-76
2021/01/11 10:53:07;;;;;;;20.97;18.87;;;-1.60;99.90;;;;;;6097405;23;20429;-76
2021/01/11 10:55:33;;;;;;;27.63;21.20;;;-1.50;99.90;;;;;;6097178;23;20461;-76
2021/01/11 10:58:00;;;;;;;22.80;20.37;;;-1.50;99.90;;;;;;6096444;23;21014;-76
2021/01/11 11:00:28;;;;;;;23.23;20.67;;;-1.50;99.90;;;;;;6097203;23;20467;-76
2021/01/11 11:02:55;;;;;;;20.73;18.50;;;-1.50;99.90;;;;;;6120786;23;20409;-76
2021/01/11 11:05:21;;;;;;;21.73;18.93;;;-1.50;99.90;;;;;;6097631;23;20390;-76
2021/01/11 11:07:48;;;;;;;23.63;19.90;;;-1.50;99.90;;;;;;6096004;23;20433;-76
2021/01/11 11:10:14;;;;;;;21.77;19.17;;;-1.40;99.90;;;;;;6095758;23;20410;-76
2021/01/11 11:12:42;;;;;;;21.77;19.40;;;-1.30;99.90;;;;;;6096107;23;20445;-77
2021/01/11 11:15:09;;;;;;;23.10;19.83;;;-1.30;99.90;;;;;;6098031;23;20730;-76
2021/01/11 11:17:36;;;;;;;22.57;19.63;;;-1.20;99.90;;;;;;6097227;23;20414;-76
2021/01/11 11:20:03;;;;;;;22.73;19.30;;;-1.00;99.90;;;;;;6097080;23;20402;-75
2021/01/11 11:22:30;;;;;;;23.80;20.13;;;-0.80;99.90;;;;;;6097681;23;20401;-75
2021/01/11 11:24:56;;;;;;;23.20;19.77;;;-0.80;99.90;;;;;;6098643;23;20390;-76
2021/01/11 11:27:22;;;;;;;22.63;20.23;;;-0.70;99.90;;;;;;6098201;23;20390;-76
2021/01/11 11:29:51;;;;;;;24.10;20.47;;;-0.60;99.90;;;;;;6096444;23;20414;-76
2021/01/11 11:32:17;;;;;;;25.07;20.07;;;-0.60;99.90;;;;;;6097909;23;20953;-76
2021/01/11 11:34:44;;;;;;;22.13;19.13;;;-0.50;99.90;;;;;;6096852;23;20764;-76
2021/01/11 11:37:13;;;;;;;23.37;20.13;;;-0.40;99.90;;;;;;6096440;23;20421;-76
2021/01/11 11:39:40;;;;;;;22.60;20.30;;;-0.30;99.90;;;;;;6097740;23;20398;-76
2021/01/11 11:42:06;;;;;;;24.73;20.67;;;-0.30;99.90;;;;;;6096605;23;20485;-76
2021/01/11 11:44:32;;;;;;;24.20;21.60;;;-0.40;99.90;;;;;;6097404;23;20394;-76
2021/01/11 11:46:59;;;;;;;22.63;20.03;;;-0.40;99.90;;;;;;6095970;23;20765;-76
2021/01/11 11:49:25;;;;;;;22.13;19.83;;;-0.40;99.90;;;;;;6095649;23;20434;-76
2021/01/11 11:51:51;;;;;;;22.10;19.80;;;-0.40;99.90;;;;;;6097172;23;20398;-77
2021/01/11 11:54:18;;;;;;;21.20;19.00;;;-0.40;99.90;;;;;;6097006;23;20741;-76
2021/01/11 11:56:45;;;;;;;20.83;18.30;;;-0.40;99.90;;;;;;6096237;23;20418;-76
2021/01/11 11:59:11;;;;;;;22.53;20.23;;;-0.40;99.90;;;;;;6096904;23;20472;-76
2021/01/11 12:01:38;;;;;;;22.40;19.43;;;-0.50;99.90;;;;;;6095536;23;20438;-77
2021/01/11 12:04:05;;;;;;;23.20;19.83;;;-0.60;99.90;;;;;;6095657;23;20418;-75
2021/01/11 12:06:41;;;;;;;24.07;19.33;;;-0.60;99.90;;;;;;6095993;23;20421;-76
2021/01/11 12:09:08;;;;;;;22.50;19.87;;;-0.70;99.90;;;;;;6096576;23;20469;-76
2021/01/11 12:11:40;;;;;;;29.17;22.43;;;-0.70;99.90;;;;;;6096696;23;20391;-76
2021/01/11 12:14:06;;;;;;;25.70;22.53;;;-0.70;99.90;;;;;;6095259;23;20422;-76
2021/01/11 12:16:32;;;;;;;23.73;21.23;;;-0.70;99.90;;;;;;6095037;23;20778;-76
2021/01/11 12:18:59;;;;;;;28.00;21.97;;;-0.70;99.90;;;;;;6096407;23;20406;-76
2021/01/11 12:21:32;;;;;;;24.70;20.70;;;-0.60;99.90;;;;;;6094789;23;20536;-76
2021/01/11 12:23:59;;;;;;;23.07;19.97;;;-0.60;99.90;;;;;;6096422;23;20719;-76
2021/01/11 12:26:26;;;;;;;22.33;20.00;;;-0.50;99.90;;;;;;6096673;23;20881;-76
2021/01/11 12:28:53;;;;;;;24.93;20.83;;;-0.40;99.90;;;;;;6095065;23;20770;-76
2021/01/11 12:31:27;;;;;;;23.67;21.00;;;-0.50;99.90;;;;;;6096628;23;20426;-76
2021/01/11 12:33:53;;;;;;;25.17;21.47;;;-0.50;99.90;;;;;;6095533;23;20411;-77
2021/01/11 12:36:24;;;;;;;26.57;21.10;;;-0.50;99.90;;;;;;6096863;23;20401;-76